createdAt,value
2023-04-14T00:01:35.389Z,100835.47
2023-04-14T00:04:04.863Z,100831.28
2023-04-14T00:06:32.923Z,100836.63
2023-04-14T00:09:01.378Z,100834.50
2023-04-14T00:11:29.363Z,100826.03
2023-04-14T00:13:57.416Z,100832.41
2023-04-14T00:16:27.995Z,100826.53
2023-04-14T00:18:55.874Z,100835.13
2023-04-14T00:21:25.019Z,100833.41
2023-04-14T00:23:52.897Z,100842.53
2023-04-14T00:26:20.767Z,100835.53
2023-04-14T00:28:49.962Z,100836.63
2023-04-14T00:31:17.985Z,100848.97
2023-04-14T00:33:45.963Z,100856.25
2023-04-14T00:36:15.773Z,100847.22
2023-04-14T00:38:45.000Z,100852.84
2023-04-14T00:41:13.136Z,100856.19
2023-04-14T00:43:40.847Z,100861.19
2023-04-14T00:46:08.999Z,100865.75
2023-04-14T00:48:37.189Z,100863.66
2023-04-14T00:51:05.799Z,100865.69
2023-04-14T00:53:34.604Z,100870.56
2023-04-14T00:56:03.938Z,100868.66
2023-04-14T00:58:32.677Z,100868.34
2023-04-14T01:01:02.157Z,100876.63
2023-04-14T01:03:30.276Z,100879.00
2023-04-14T01:05:59.433Z,100886.22
2023-04-14T01:08:28.886Z,100888.22
2023-04-14T01:11:08.029Z,100895.47
2023-04-14T01:13:42.190Z,100896.75
2023-04-14T01:16:18.000Z,100900.25
2023-04-14T01:18:54.814Z,100904.28
2023-04-14T01:21:27.584Z,100905.91
2023-04-14T01:24:09.552Z,100904.53
2023-04-14T01:26:40.359Z,100915.97
2023-04-14T01:29:37.794Z,100906.56
2023-04-14T01:32:10.600Z,100899.50
2023-04-14T01:34:43.034Z,100915.88
2023-04-14T01:37:17.408Z,100915.13
2023-04-14T01:39:49.607Z,100918.63
2023-04-14T01:42:23.130Z,100920.88
2023-04-14T01:44:57.727Z,100915.06
2023-04-14T01:47:30.703Z,100915.50
2023-04-14T01:50:01.385Z,100913.06
2023-04-14T01:52:30.654Z,100911.44
2023-04-14T01:55:01.477Z,100898.22
2023-04-14T01:57:30.378Z,100905.94
2023-04-14T02:00:01.777Z,100910.16
2023-04-14T02:02:34.753Z,100906.91
2023-04-14T02:05:04.946Z,100908.53
2023-04-14T02:07:34.721Z,100912.94
2023-04-14T02:10:04.326Z,100913.81
2023-04-14T02:12:33.380Z,100918.13
2023-04-14T02:15:02.518Z,100918.28
2023-04-14T02:17:33.262Z,100923.59
2023-04-14T02:20:01.970Z,100925.56
2023-04-14T02:22:29.724Z,100918.44
2023-04-14T02:24:58.359Z,100923.34
2023-04-14T02:27:32.151Z,100925.00
2023-04-14T02:30:09.280Z,100924.91
2023-04-14T02:32:41.508Z,100924.06
2023-04-14T02:35:13.521Z,100935.53
2023-04-14T02:37:45.008Z,100927.41
2023-04-14T02:40:16.469Z,100934.69
2023-04-14T02:42:48.017Z,100940.03
2023-04-14T02:45:22.687Z,100942.53
2023-04-14T02:47:56.492Z,100944.50
2023-04-14T02:50:26.649Z,100939.22
2023-04-14T02:53:05.601Z,100943.72
2023-04-14T02:55:38.112Z,100943.63
2023-04-14T02:58:07.055Z,100943.56
2023-04-14T03:00:41.133Z,100945.69
2023-04-14T03:03:12.710Z,100942.44
2023-04-14T03:05:41.893Z,100949.28
2023-04-14T03:08:12.488Z,100947.53
2023-04-14T03:10:45.226Z,100961.75
2023-04-14T03:13:16.188Z,100958.44
2023-04-14T03:15:46.099Z,100954.63
2023-04-14T03:18:17.026Z,100955.63
2023-04-14T03:20:47.203Z,100954.84
2023-04-14T03:23:18.913Z,100952.63
2023-04-14T03:25:53.791Z,100950.63
2023-04-14T03:28:30.300Z,100959.38
2023-04-14T03:31:03.763Z,100956.06
2023-04-14T03:33:43.949Z,100955.03
2023-04-14T03:36:15.686Z,100955.13
2023-04-14T03:38:45.127Z,100962.03
2023-04-14T03:41:14.936Z,100957.00
2023-04-14T03:43:43.989Z,100953.19
2023-04-14T03:46:15.585Z,100951.63
2023-04-14T03:48:48.843Z,100960.31
2023-04-14T03:51:18.458Z,100963.88
2023-04-14T03:53:47.946Z,100960.69
2023-04-14T03:56:18.696Z,100966.44
2023-04-14T03:58:49.262Z,100965.56
2023-04-14T04:01:19.351Z,100964.78
2023-04-14T04:03:49.770Z,100960.91
2023-04-14T04:06:18.453Z,100964.72
2023-04-14T04:08:50.609Z,100965.91
2023-04-14T04:11:20.803Z,100974.25
2023-04-14T04:13:52.210Z,100973.84
2023-04-14T04:16:22.442Z,100977.97
2023-04-14T04:18:53.465Z,100983.06
2023-04-14T04:21:29.784Z,100983.84
2023-04-14T04:23:59.379Z,100986.56
2023-04-14T04:26:27.373Z,101003.47
2023-04-14T04:28:57.920Z,100997.69
2023-04-14T04:31:28.868Z,100994.28
2023-04-14T04:33:59.176Z,100998.59
2023-04-14T04:36:27.704Z,101007.06
2023-04-14T04:38:57.241Z,101012.22
2023-04-14T04:41:27.464Z,101007.84
2023-04-14T04:43:56.882Z,101012.13
2023-04-14T04:46:49.932Z,101014.63
2023-04-14T04:49:19.731Z,101016.50
2023-04-14T04:51:47.901Z,101007.75
2023-04-14T04:54:18.080Z,101013.78
2023-04-14T04:56:46.155Z,101012.13
2023-04-14T04:59:14.041Z,101015.84
2023-04-14T05:01:42.429Z,101025.38
2023-04-14T05:04:10.234Z,101024.56
2023-04-14T05:06:39.525Z,101028.88
2023-04-14T05:09:07.526Z,101037.03
2023-04-14T05:11:35.508Z,101039.72
2023-04-14T05:14:03.922Z,101029.84
2023-04-14T05:16:32.070Z,101033.22
2023-04-14T05:19:00.508Z,101033.13
2023-04-14T05:21:28.874Z,101032.94
2023-04-14T05:23:58.519Z,101021.31
2023-04-14T05:26:49.016Z,101023.19
2023-04-14T05:29:14.035Z,101024.78
2023-04-14T05:31:41.792Z,101026.13
2023-04-14T05:34:09.709Z,101038.25
2023-04-14T05:36:37.504Z,101028.31
2023-04-14T05:39:06.670Z,101034.06
2023-04-14T05:41:34.595Z,101024.41
2023-04-14T05:44:03.572Z,101030.88
2023-04-14T05:46:32.588Z,101022.50
2023-04-14T05:49:01.363Z,101017.31
2023-04-14T05:51:29.314Z,101022.72
2023-04-14T05:53:57.089Z,101012.84
2023-04-14T05:56:26.518Z,101010.75
2023-04-14T05:58:56.016Z,101005.34
2023-04-14T06:01:23.964Z,101010.41
2023-04-14T06:03:52.106Z,101014.97
2023-04-14T06:06:20.839Z,101003.16
2023-04-14T06:08:48.624Z,101000.91
2023-04-14T06:11:16.299Z,101004.31
2023-04-14T06:13:45.435Z,100996.81
2023-04-14T06:16:13.123Z,100998.16
2023-04-14T06:18:41.406Z,100994.22
2023-04-14T06:21:09.296Z,100978.63
2023-04-14T06:23:37.006Z,100983.81
2023-04-14T06:26:05.581Z,100982.56
2023-04-14T06:28:33.347Z,100980.50
2023-04-14T06:31:02.599Z,100982.09
2023-04-14T06:33:30.281Z,100964.69
2023-04-14T06:35:57.992Z,100969.53
2023-04-14T06:38:27.133Z,100963.66
2023-04-14T06:40:54.877Z,100971.72
2023-04-14T06:43:23.040Z,100959.91
2023-04-14T06:45:51.822Z,100957.38
2023-04-14T06:48:22.088Z,100945.91
2023-04-14T06:50:54.826Z,100946.22
2023-04-14T06:53:22.663Z,100940.56
2023-04-14T06:55:52.126Z,100951.34
2023-04-14T06:58:20.494Z,100947.69
2023-04-14T07:00:48.959Z,100940.13
2023-04-14T07:03:17.114Z,100941.63
2023-04-14T07:05:47.118Z,100929.91
2023-04-14T07:08:14.938Z,100924.06
2023-04-14T07:10:42.633Z,100910.72
2023-04-14T07:13:10.351Z,100909.66
2023-04-14T07:15:38.732Z,100902.81
2023-04-14T07:18:07.576Z,100903.84
2023-04-14T07:20:35.413Z,100896.97
2023-04-14T07:23:04.535Z,100894.06
2023-04-14T07:25:32.263Z,100891.34
2023-04-14T07:28:03.648Z,100892.06
2023-04-14T07:30:32.578Z,100889.09
2023-04-14T07:33:02.142Z,100872.56
2023-04-14T07:35:30.488Z,100878.47
2023-04-14T07:37:58.369Z,100873.53
2023-04-14T07:40:28.161Z,100870.13
2023-04-14T07:42:56.272Z,100871.00
2023-04-14T07:45:24.352Z,100863.97
2023-04-14T07:47:54.230Z,100868.84
2023-04-14T07:50:23.708Z,100866.13
2023-04-14T07:52:51.784Z,100860.75
2023-04-14T07:55:19.862Z,100857.25
2023-04-14T07:57:49.257Z,100856.47
2023-04-14T08:00:17.724Z,100864.22
2023-04-14T08:02:46.052Z,100848.88
2023-04-14T08:05:14.137Z,100850.81
2023-04-14T08:07:44.475Z,100853.13
2023-04-14T08:10:12.343Z,100847.75
2023-04-14T08:12:40.305Z,100844.75
2023-04-14T08:15:10.942Z,100836.88
2023-04-14T08:17:38.871Z,100826.38
2023-04-14T08:20:07.975Z,100820.28
2023-04-14T08:22:37.110Z,100825.81
2023-04-14T08:25:05.325Z,100824.19
2023-04-14T08:27:33.265Z,100818.06
2023-04-14T08:30:01.040Z,100818.50
2023-04-14T08:32:30.424Z,100809.97
2023-04-14T08:35:35.770Z,100802.63
2023-04-14T08:37:47.281Z,100812.81
2023-04-14T08:40:17.378Z,100792.09
2023-04-14T08:42:45.954Z,100799.66
2023-04-14T08:45:13.859Z,100784.09
2023-04-14T08:47:44.845Z,100786.28
2023-04-14T08:50:16.707Z,100784.44
2023-04-14T08:52:48.190Z,100772.72
2023-04-14T08:55:16.866Z,100771.47
2023-04-14T08:57:46.297Z,100773.47
2023-04-14T09:00:15.916Z,100777.91
2023-04-14T09:02:46.146Z,100768.78
2023-04-14T09:05:14.850Z,100767.50
2023-04-14T09:07:43.712Z,100767.22
2023-04-14T09:10:12.755Z,100756.78
2023-04-14T09:12:41.923Z,100757.09
2023-04-14T09:15:11.278Z,100754.72
2023-04-14T09:17:39.184Z,100754.78
2023-04-14T09:20:38.000Z,100743.22
2023-04-14T09:22:57.924Z,100750.22
2023-04-14T09:25:26.286Z,100744.47
2023-04-14T09:27:54.314Z,100748.44
2023-04-14T09:30:22.401Z,100748.59
2023-04-14T09:32:53.541Z,100739.84
2023-04-14T09:35:22.903Z,100743.94
2023-04-14T09:37:50.607Z,100741.97
2023-04-14T09:40:40.334Z,100733.72
2023-04-14T09:43:08.410Z,100723.66
2023-04-14T09:45:44.662Z,100728.00
2023-04-14T09:48:13.873Z,100717.97
2023-04-14T09:50:59.105Z,100724.41
2023-04-14T09:53:28.256Z,100714.56
2023-04-14T09:55:56.478Z,100715.28
2023-04-14T09:58:28.766Z,100703.25
2023-04-14T10:00:57.357Z,100699.94
2023-04-14T10:03:36.011Z,100700.69
2023-04-14T10:06:07.725Z,100691.56
2023-04-14T10:08:38.222Z,100702.97
2023-04-14T10:11:20.606Z,100675.25
2023-04-14T10:13:49.984Z,100676.72
2023-04-14T10:16:18.696Z,100682.41
2023-04-14T10:18:47.028Z,100685.47
2023-04-14T10:21:17.386Z,100675.34
2023-04-14T10:23:46.254Z,100667.94
2023-04-14T10:26:15.174Z,100649.06
2023-04-14T10:28:45.115Z,100649.44
2023-04-14T10:31:18.352Z,100649.31
2023-04-14T10:33:46.760Z,100677.44
2023-04-14T10:36:26.410Z,100679.09
2023-04-14T10:39:00.902Z,100676.53
2023-04-14T10:41:29.702Z,100674.19
2023-04-14T10:43:57.765Z,100641.75
2023-04-14T10:46:26.032Z,100641.31
2023-04-14T10:49:13.222Z,100639.22
2023-04-14T10:51:50.868Z,100612.66
2023-04-14T10:54:19.887Z,100621.66
2023-04-14T10:57:10.645Z,100612.00
2023-04-14T10:59:47.580Z,100598.69
2023-04-14T11:02:31.347Z,100610.03
2023-04-14T11:05:22.839Z,100619.06
2023-04-14T11:08:02.769Z,100615.13
2023-04-14T11:10:35.081Z,100584.63
2023-04-14T11:13:05.122Z,100595.47
2023-04-14T11:15:51.059Z,100574.63
2023-04-14T11:18:25.391Z,100544.00
2023-04-14T11:20:56.662Z,100528.44
2023-04-14T11:23:29.894Z,100508.91
2023-04-14T11:25:58.753Z,100536.09
2023-04-14T11:28:31.617Z,100532.13
2023-04-14T11:31:02.228Z,100517.09
2023-04-14T11:33:31.188Z,100509.84
2023-04-14T11:36:00.304Z,100505.34
2023-04-14T11:38:30.597Z,100485.97
2023-04-14T11:41:02.940Z,100504.47
2023-04-14T11:43:32.043Z,100501.63
2023-04-14T11:46:02.233Z,100511.94
2023-04-14T11:48:32.241Z,100508.09
2023-04-14T11:51:06.018Z,100513.50
2023-04-14T11:53:40.718Z,100509.69
2023-04-14T11:56:13.338Z,100515.63
2023-04-14T11:58:43.159Z,100507.91
2023-04-14T12:01:15.091Z,100491.50
2023-04-14T12:03:44.456Z,100482.41
2023-04-14T12:06:15.283Z,100487.09
2023-04-14T12:08:50.598Z,100497.19
2023-04-14T12:11:19.070Z,100471.47
2023-04-14T12:13:48.936Z,100475.66
2023-04-14T12:16:20.864Z,100468.53
2023-04-14T12:18:52.089Z,100466.81
2023-04-14T12:21:21.316Z,100460.78
2023-04-14T12:23:53.034Z,100461.91
2023-04-14T12:26:22.262Z,100456.03
2023-04-14T12:28:58.093Z,100464.63
2023-04-14T12:31:31.255Z,100448.47
2023-04-14T12:34:08.575Z,100468.78
2023-04-14T12:36:50.021Z,100475.44
2023-04-14T12:39:22.833Z,100474.31
2023-04-14T12:41:51.272Z,100498.31
2023-04-14T12:44:20.951Z,100508.72
2023-04-14T12:46:50.190Z,100525.34
2023-04-14T12:49:34.790Z,100524.25
2023-04-14T12:52:03.628Z,100515.28
2023-04-14T12:54:51.963Z,100489.50
2023-04-14T12:57:24.984Z,100496.47
2023-04-14T12:59:54.276Z,100522.34
2023-04-14T13:02:23.390Z,100522.91
2023-04-14T13:04:51.926Z,100509.22
2023-04-14T13:07:20.344Z,100508.94
2023-04-14T13:09:51.787Z,100496.13
2023-04-14T13:12:22.292Z,100484.00
2023-04-14T13:14:50.829Z,100480.53
2023-04-14T13:17:19.374Z,100485.91
2023-04-14T13:19:47.643Z,100475.75
2023-04-14T13:22:16.243Z,100474.25
2023-04-14T13:24:47.055Z,100478.97
2023-04-14T13:27:15.711Z,100475.06
2023-04-14T13:29:48.645Z,100488.97
2023-04-14T13:32:17.292Z,100477.41
2023-04-14T13:34:49.158Z,100463.25
2023-04-14T13:37:17.968Z,100465.22
2023-04-14T13:39:46.422Z,100429.06
2023-04-14T13:42:15.250Z,100396.59
2023-04-14T13:44:48.151Z,100417.56
2023-04-14T13:47:18.913Z,100441.56
2023-04-14T13:49:47.219Z,100431.78
2023-04-14T13:52:15.926Z,100436.09
2023-04-14T13:54:44.114Z,100454.00
2023-04-14T13:57:12.855Z,100429.53
2023-04-14T13:59:41.593Z,100456.72
2023-04-14T14:02:11.658Z,100475.47
2023-04-14T14:04:40.746Z,100458.72
2023-04-14T14:07:09.401Z,100458.41
2023-04-14T14:09:37.920Z,100428.09
2023-04-14T14:12:06.723Z,100430.97
2023-04-14T14:14:35.290Z,100426.78
2023-04-14T14:17:05.783Z,100444.81
2023-04-14T14:19:35.870Z,100440.38
2023-04-14T14:22:04.163Z,100452.41
2023-04-14T14:24:32.718Z,100448.72
2023-04-14T14:27:01.284Z,100438.09
2023-04-14T14:29:29.783Z,100434.59
2023-04-14T14:31:57.892Z,100417.88
2023-04-14T14:34:25.745Z,100416.22
2023-04-14T14:36:55.173Z,100424.50
2023-04-14T14:39:24.764Z,100412.38
2023-04-14T14:41:52.939Z,100434.97
2023-04-14T14:44:20.740Z,100425.28
2023-04-14T14:46:48.654Z,100401.13
2023-04-14T14:49:16.395Z,100392.19
2023-04-14T14:51:44.195Z,100395.34
2023-04-14T14:54:13.744Z,100358.84
2023-04-14T14:56:42.142Z,100341.06
2023-04-14T14:59:09.889Z,100352.38
2023-04-14T15:01:37.881Z,100358.09
2023-04-14T15:04:06.780Z,100333.78
2023-04-14T15:06:35.921Z,100329.13
2023-04-14T15:09:05.364Z,100327.25
2023-04-14T15:11:34.931Z,100329.78
2023-04-14T15:14:03.390Z,100349.00
2023-04-14T15:16:31.828Z,100348.00
2023-04-14T15:18:59.539Z,100352.72
2023-04-14T15:21:27.360Z,100341.91
2023-04-14T15:23:55.168Z,100354.78
2023-04-14T15:26:23.026Z,100334.50
2023-04-14T15:28:52.336Z,100349.38
2023-04-14T15:31:20.771Z,100343.69
2023-04-14T15:33:48.722Z,100343.47
2023-04-14T15:36:16.551Z,100338.00
2023-04-14T15:38:44.291Z,100332.69
2023-04-14T15:41:12.046Z,100347.84
2023-04-14T15:43:39.899Z,100354.19
2023-04-14T15:46:09.352Z,100364.00
2023-04-14T15:48:37.132Z,100329.78
2023-04-14T15:51:06.675Z,100343.19
2023-04-14T15:53:37.928Z,100337.31
2023-04-14T15:56:06.110Z,100359.84
2023-04-14T15:58:34.075Z,100376.81
2023-04-14T16:01:01.911Z,100375.56
2023-04-14T16:03:31.546Z,100351.41
2023-04-14T16:06:03.283Z,100341.94
2023-04-14T16:08:32.233Z,100355.50
2023-04-14T16:11:00.396Z,100344.78
2023-04-14T16:13:28.131Z,100380.22
2023-04-14T16:15:56.132Z,100353.59
2023-04-14T16:18:24.154Z,100351.81
2023-04-14T16:20:53.882Z,100359.19
2023-04-14T16:23:21.857Z,100368.66
2023-04-14T16:25:50.724Z,100383.16
2023-04-14T16:28:18.593Z,100362.16
2023-04-14T16:30:46.756Z,100353.09
2023-04-14T16:33:14.544Z,100367.78
2023-04-14T16:35:42.666Z,100378.19
2023-04-14T16:38:12.182Z,100383.41
2023-04-14T16:40:40.594Z,100383.41
2023-04-14T16:43:09.602Z,100375.66
2023-04-14T16:45:37.874Z,100399.06
2023-04-14T16:48:05.962Z,100378.16
2023-04-14T16:50:35.041Z,100392.03
2023-04-14T16:53:03.313Z,100395.97
2023-04-14T16:55:34.194Z,100390.91
2023-04-14T16:58:03.167Z,100404.84
2023-04-14T17:00:31.055Z,100404.19
2023-04-14T17:02:59.015Z,100394.03
2023-04-14T17:05:27.206Z,100401.94
2023-04-14T17:07:57.980Z,100403.44
2023-04-14T17:10:29.128Z,100396.91
2023-04-14T17:12:58.720Z,100405.69
2023-04-14T17:15:26.632Z,100400.41
2023-04-14T17:17:54.697Z,100415.09
2023-04-14T17:20:22.549Z,100421.13
2023-04-14T17:22:51.793Z,100421.19
2023-04-14T17:25:20.978Z,100428.63
2023-04-14T17:27:49.513Z,100449.38
2023-04-14T17:30:21.538Z,100453.81
2023-04-14T17:32:49.888Z,100470.97
2023-04-14T17:35:18.565Z,100468.13
2023-04-14T17:37:46.719Z,100478.75
2023-04-14T17:40:15.857Z,100487.78
2023-04-14T17:42:44.239Z,100487.25
2023-04-14T17:45:13.264Z,100497.41
2023-04-14T17:47:42.931Z,100519.50
2023-04-14T17:50:11.293Z,100514.19
2023-04-14T17:52:39.748Z,100514.47
2023-04-14T17:55:08.981Z,100508.16
2023-04-14T17:57:37.092Z,100507.41
2023-04-14T18:00:06.226Z,100514.94
2023-04-14T18:02:41.819Z,100515.31
2023-04-14T18:05:11.370Z,100532.31
2023-04-14T18:07:39.261Z,100537.88
2023-04-14T18:10:08.395Z,100540.31
2023-04-14T18:12:36.744Z,100528.59
2023-04-14T18:15:05.766Z,100530.56
2023-04-14T18:17:35.861Z,100538.44
2023-04-14T18:20:06.648Z,100545.31
2023-04-14T18:22:34.930Z,100559.22
2023-04-14T18:25:03.135Z,100559.22
2023-04-14T18:30:01.759Z,100580.16
2023-04-14T18:32:31.613Z,100587.84
2023-04-14T18:35:00.533Z,100589.66
2023-04-14T18:37:29.732Z,100600.19
2023-04-14T18:39:57.496Z,100615.91
2023-04-14T18:42:27.166Z,100621.97
2023-04-14T18:44:55.112Z,100618.91
2023-04-14T18:47:23.123Z,100626.13
2023-04-14T18:49:51.478Z,100619.00
2023-04-14T18:52:19.361Z,100627.69
2023-04-14T18:54:49.182Z,100621.84
2023-04-14T18:57:17.748Z,100620.03
2023-04-14T18:59:45.676Z,100630.34
2023-04-14T19:02:14.479Z,100632.63
2023-04-14T19:04:42.237Z,100621.22
2023-04-14T19:07:09.925Z,100634.69
2023-04-14T19:09:37.733Z,100625.81
2023-04-14T19:12:15.552Z,100635.53
2023-04-14T19:14:53.300Z,100637.19
2023-04-14T19:17:21.168Z,100632.41
2023-04-14T19:19:49.015Z,100637.50
2023-04-14T19:22:17.094Z,100629.28
2023-04-14T19:24:44.850Z,100621.50
2023-04-14T19:27:13.926Z,100615.22
2023-04-14T19:29:41.635Z,100621.38
2023-04-14T19:32:09.639Z,100619.81
2023-04-14T19:34:37.420Z,100613.38
2023-04-14T19:37:05.279Z,100620.25
2023-04-14T19:39:33.123Z,100616.88
2023-04-14T19:42:01.569Z,100621.00
2023-04-14T19:44:30.701Z,100616.66
2023-04-14T19:46:58.417Z,100617.53
2023-04-14T19:49:26.318Z,100626.78
2023-04-14T19:51:54.338Z,100619.31
2023-04-14T19:54:22.372Z,100628.75
2023-04-14T19:56:50.545Z,100625.72
2023-04-14T19:59:18.424Z,100629.13
2023-04-14T20:01:48.539Z,100633.41
2023-04-14T20:04:16.302Z,100627.66
2023-04-14T20:06:44.874Z,100626.47
2023-04-14T20:09:12.759Z,100631.13
2023-04-14T20:11:40.814Z,100633.56
2023-04-14T20:14:09.234Z,100629.22
2023-04-14T20:16:37.042Z,100632.19
2023-04-14T20:19:06.712Z,100630.00
2023-04-14T20:21:34.814Z,100638.38
2023-04-14T20:24:03.126Z,100639.84
2023-04-14T20:26:30.886Z,100638.47
2023-04-14T20:28:59.051Z,100637.53
2023-04-14T20:31:27.367Z,100641.38
2023-04-14T20:33:56.435Z,100638.09
2023-04-14T20:36:25.757Z,100634.78
2023-04-14T20:38:53.625Z,100637.84
2023-04-14T20:41:21.566Z,100634.31
2023-04-14T20:43:49.366Z,100643.06
2023-04-14T20:46:17.687Z,100645.81
2023-04-14T20:48:45.855Z,100642.63
2023-04-14T20:51:13.814Z,100651.09
2023-04-14T20:53:43.328Z,100643.88
2023-04-14T20:56:11.145Z,100646.69
2023-04-14T20:58:39.652Z,100655.22
2023-04-14T21:01:07.519Z,100647.59
2023-04-14T21:03:35.596Z,100653.16
2023-04-14T21:06:03.928Z,100658.03
2023-04-14T21:08:31.668Z,100659.78
2023-04-14T21:11:16.256Z,100664.50
2023-04-14T21:15:26.764Z,100663.88
2023-04-14T21:16:33.569Z,100663.28
2023-04-14T21:19:03.908Z,100670.06
2023-04-14T21:21:32.936Z,100660.19
2023-04-14T21:24:00.895Z,100655.16
2023-04-14T21:26:30.048Z,100667.66
2023-04-14T21:28:57.986Z,100665.41
2023-04-14T21:31:25.837Z,100669.91
2023-04-14T21:33:53.618Z,100664.88
2023-04-14T21:36:21.781Z,100666.13
2023-04-14T21:38:49.454Z,100668.91
2023-04-14T21:41:17.119Z,100669.22
2023-04-14T21:43:46.263Z,100675.47
2023-04-14T21:46:14.720Z,100670.28
2023-04-14T21:48:42.891Z,100673.31
2023-04-14T21:51:11.209Z,100679.75
2023-04-14T21:53:38.988Z,100677.13
2023-04-14T21:56:10.151Z,100675.31
2023-04-14T21:58:39.787Z,100673.66
2023-04-14T22:01:10.459Z,100672.88
2023-04-14T22:03:40.654Z,100677.81
2023-04-14T22:06:09.903Z,100678.69
2023-04-14T22:08:37.967Z,100686.13
2023-04-14T22:11:07.003Z,100678.06
2023-04-14T22:13:34.684Z,100684.47
2023-04-14T22:16:02.434Z,100673.22
2023-04-14T22:18:31.923Z,100677.63
2023-04-14T22:20:59.662Z,100669.69
2023-04-14T22:23:28.510Z,100684.13
2023-04-14T22:25:56.941Z,100682.38
2023-04-14T22:28:24.857Z,100682.56
2023-04-14T22:30:52.966Z,100689.66
2023-04-14T22:33:21.004Z,100691.75
2023-04-14T22:35:50.839Z,100689.94
2023-04-14T22:38:18.587Z,100683.59
2023-04-14T22:40:46.588Z,100693.47
2023-04-14T22:43:15.332Z,100692.69
2023-04-14T22:45:43.015Z,100693.22
2023-04-14T22:48:11.476Z,100692.94
2023-04-14T22:50:40.563Z,100691.31
2023-04-14T22:53:09.689Z,100688.63
2023-04-14T22:55:37.792Z,100691.59
2023-04-14T22:58:05.546Z,100681.91
2023-04-14T23:00:33.354Z,100689.88
2023-04-14T23:03:01.794Z,100694.63
2023-04-14T23:05:30.029Z,100694.81
2023-04-14T23:07:58.085Z,100697.50
2023-04-14T23:10:27.775Z,100693.97
2023-04-14T23:12:55.604Z,100696.91
2023-04-14T23:15:23.794Z,100697.00
2023-04-14T23:17:52.301Z,100700.38
2023-04-14T23:20:20.634Z,100696.44
2023-04-14T23:22:48.431Z,100697.47
2023-04-14T23:25:16.223Z,100695.72
2023-04-14T23:27:45.358Z,100705.00
2023-04-14T23:30:13.195Z,100702.13
2023-04-14T23:32:41.250Z,100712.34
2023-04-14T23:35:10.224Z,100707.81
2023-04-14T23:37:38.791Z,100710.59
2023-04-14T23:40:08.032Z,100706.47
2023-04-14T23:42:36.026Z,100714.47
2023-04-14T23:45:06.307Z,100710.03
2023-04-14T23:47:34.206Z,100705.53
2023-04-14T23:50:01.972Z,100709.66
2023-04-14T23:52:29.732Z,100704.81
2023-04-14T23:54:57.808Z,100700.47
2023-04-14T23:57:26.943Z,100702.53
2023-04-14T23:59:55.084Z,100699.03
